sensor_id;sensor_type;location;lat;lon;timestamp;P1;durP1;ratioP1;P2;durP2;ratioP2
351;SDS011;164;50.784;6.496;2023-06-24T00:01:08;8.10;;;7.70;;
351;SDS011;164;50.784;6.496;2023-06-24T00:03:39;7.72;;;7.32;;
351;SDS011;164;50.784;6.496;2023-06-24T00:06:11;7.47;;;7.07;;
351;SDS011;164;50.784;6.496;2023-06-24T00:08:43;7.95;;;7.55;;
351;SDS011;164;50.784;6.496;2023-06-24T00:11:10;6.45;;;6.05;;
351;SDS011;164;50.784;6.496;2023-06-24T00:13:38;7.38;;;6.97;;
351;SDS011;164;50.784;6.496;2023-06-24T00:16:05;9.57;;;7.53;;
351;SDS011;164;50.784;6.496;2023-06-24T00:18:32;6.75;;;6.35;;
351;SDS011;164;50.784;6.496;2023-06-24T00:21:02;6.82;;;6.43;;
351;SDS011;164;50.784;6.496;2023-06-24T00:23:29;7.15;;;6.75;;
351;SDS011;164;50.784;6.496;2023-06-24T00:25:59;7.88;;;7.47;;
351;SDS011;164;50.784;6.496;2023-06-24T00:28:26;7.85;;;7.45;;
351;SDS011;164;50.784;6.496;2023-06-24T00:30:53;7.55;;;7.15;;
351;SDS011;164;50.784;6.496;2023-06-24T00:33:21;6.63;;;6.22;;
351;SDS011;164;50.784;6.496;2023-06-24T00:35:48;6.70;;;6.30;;
351;SDS011;164;50.784;6.496;2023-06-24T00:38:17;9.27;;;7.72;;
351;SDS011;164;50.784;6.496;2023-06-24T00:40:44;9.00;;;7.45;;
351;SDS011;164;50.784;6.496;2023-06-24T00:43:11;7.38;;;6.97;;
351;SDS011;164;50.784;6.496;2023-06-24T00:45:38;7.32;;;6.93;;
351;SDS011;164;50.784;6.496;2023-06-24T00:48:06;8.55;;;6.95;;
351;SDS011;164;50.784;6.496;2023-06-24T00:50:33;7.22;;;6.85;;
351;SDS011;164;50.784;6.496;2023-06-24T00:53:02;7.38;;;6.97;;
351;SDS011;164;50.784;6.496;2023-06-24T00:55:31;6.95;;;6.40;;
351;SDS011;164;50.784;6.496;2023-06-24T00:57:58;7.25;;;6.85;;
351;SDS011;164;50.784;6.496;2023-06-24T01:00:27;8.50;;;7.10;;
351;SDS011;164;50.784;6.496;2023-06-24T01:02:55;6.75;;;6.35;;
351;SDS011;164;50.784;6.496;2023-06-24T01:05:23;6.85;;;6.45;;
351;SDS011;164;50.784;6.496;2023-06-24T01:07:51;7.18;;;6.78;;
351;SDS011;164;50.784;6.496;2023-06-24T01:10:21;6.55;;;6.15;;
351;SDS011;164;50.784;6.496;2023-06-24T01:12:50;7.50;;;7.10;;
351;SDS011;164;50.784;6.496;2023-06-24T01:15:18;8.55;;;6.70;;
351;SDS011;164;50.784;6.496;2023-06-24T01:17:49;5.75;;;5.45;;
351;SDS011;164;50.784;6.496;2023-06-24T01:20:23;8.02;;;7.63;;
351;SDS011;164;50.784;6.496;2023-06-24T01:23:06;6.95;;;6.55;;
351;SDS011;164;50.784;6.496;2023-06-24T01:25:44;8.18;;;7.78;;
351;SDS011;164;50.784;6.496;2023-06-24T01:31:06;7.55;;;7.15;;
351;SDS011;164;50.784;6.496;2023-06-24T01:33:38;7.40;;;6.55;;
351;SDS011;164;50.784;6.496;2023-06-24T01:36:09;8.43;;;6.65;;
351;SDS011;164;50.784;6.496;2023-06-24T01:38:40;7.20;;;6.80;;
351;SDS011;164;50.784;6.496;2023-06-24T01:41:10;7.15;;;6.75;;
351;SDS011;164;50.784;6.496;2023-06-24T01:43:40;7.20;;;6.80;;
351;SDS011;164;50.784;6.496;2023-06-24T01:46:09;9.90;;;6.65;;
351;SDS011;164;50.784;6.496;2023-06-24T01:48:38;8.02;;;7.63;;
351;SDS011;164;50.784;6.496;2023-06-24T01:51:08;6.85;;;6.45;;
351;SDS011;164;50.784;6.496;2023-06-24T01:53:36;7.88;;;7.47;;
351;SDS011;164;50.784;6.496;2023-06-24T01:56:05;7.57;;;7.18;;
351;SDS011;164;50.784;6.496;2023-06-24T01:58:32;7.28;;;6.65;;
351;SDS011;164;50.784;6.496;2023-06-24T02:01:01;7.70;;;7.30;;
351;SDS011;164;50.784;6.496;2023-06-24T02:03:29;7.88;;;7.47;;
351;SDS011;164;50.784;6.496;2023-06-24T02:05:59;9.07;;;8.57;;
351;SDS011;164;50.784;6.496;2023-06-24T02:08:29;8.18;;;7.53;;
351;SDS011;164;50.784;6.496;2023-06-24T02:10:58;7.90;;;7.50;;
351;SDS011;164;50.784;6.496;2023-06-24T02:13:26;7.50;;;7.10;;
351;SDS011;164;50.784;6.496;2023-06-24T02:15:54;7.28;;;6.88;;
351;SDS011;164;50.784;6.496;2023-06-24T02:18:21;7.30;;;6.90;;
351;SDS011;164;50.784;6.496;2023-06-24T02:20:49;7.38;;;6.97;;
351;SDS011;164;50.784;6.496;2023-06-24T02:23:19;12.80;;;7.70;;
351;SDS011;164;50.784;6.496;2023-06-24T02:25:46;8.75;;;7.50;;
351;SDS011;164;50.784;6.496;2023-06-24T02:28:14;7.50;;;6.78;;
351;SDS011;164;50.784;6.496;2023-06-24T02:30:42;8.40;;;7.72;;
351;SDS011;164;50.784;6.496;2023-06-24T02:33:10;8.60;;;7.15;;
351;SDS011;164;50.784;6.496;2023-06-24T02:35:37;8.45;;;7.90;;
351;SDS011;164;50.784;6.496;2023-06-24T02:38:07;7.32;;;6.93;;
351;SDS011;164;50.784;6.496;2023-06-24T02:40:35;6.88;;;6.47;;
351;SDS011;164;50.784;6.496;2023-06-24T02:43:03;10.65;;;7.82;;
351;SDS011;164;50.784;6.496;2023-06-24T02:45:30;7.78;;;7.38;;
351;SDS011;164;50.784;6.496;2023-06-24T02:47:57;8.20;;;7.80;;
351;SDS011;164;50.784;6.496;2023-06-24T02:50:25;7.70;;;7.30;;
351;SDS011;164;50.784;6.496;2023-06-24T02:52:55;7.32;;;6.93;;
351;SDS011;164;50.784;6.496;2023-06-24T02:55:22;7.45;;;7.05;;
351;SDS011;164;50.784;6.496;2023-06-24T02:57:51;6.85;;;6.45;;
351;SDS011;164;50.784;6.496;2023-06-24T03:00:19;9.43;;;7.85;;
351;SDS011;164;50.784;6.496;2023-06-24T03:02:46;7.97;;;7.57;;
351;SDS011;164;50.784;6.496;2023-06-24T03:05:14;8.05;;;7.55;;
351;SDS011;164;50.784;6.496;2023-06-24T03:07:43;8.07;;;7.68;;
351;SDS011;164;50.784;6.496;2023-06-24T03:10:13;7.38;;;6.97;;
351;SDS011;164;50.784;6.496;2023-06-24T03:12:40;7.82;;;7.10;;
351;SDS011;164;50.784;6.496;2023-06-24T03:15:09;7.20;;;6.80;;
351;SDS011;164;50.784;6.496;2023-06-24T03:17:36;7.38;;;6.55;;
351;SDS011;164;50.784;6.496;2023-06-24T03:20:04;8.40;;;7.32;;
351;SDS011;164;50.784;6.496;2023-06-24T03:22:33;10.60;;;7.72;;
351;SDS011;164;50.784;6.496;2023-06-24T03:25:00;7.60;;;7.20;;
351;SDS011;164;50.784;6.496;2023-06-24T03:27:27;7.85;;;7.07;;
351;SDS011;164;50.784;6.496;2023-06-24T03:29:56;7.50;;;7.10;;
351;SDS011;164;50.784;6.496;2023-06-24T03:32:24;8.55;;;7.60;;
351;SDS011;164;50.784;6.496;2023-06-24T03:34:52;7.50;;;6.30;;
351;SDS011;164;50.784;6.496;2023-06-24T03:37:19;7.90;;;7.50;;
351;SDS011;164;50.784;6.496;2023-06-24T03:39:46;7.82;;;7.43;;
351;SDS011;164;50.784;6.496;2023-06-24T03:42:14;8.60;;;7.38;;
351;SDS011;164;50.784;6.496;2023-06-24T03:44:41;7.20;;;6.80;;
351;SDS011;164;50.784;6.496;2023-06-24T03:47:08;7.97;;;7.57;;
351;SDS011;164;50.784;6.496;2023-06-24T03:49:37;6.95;;;6.55;;
351;SDS011;164;50.784;6.496;2023-06-24T03:52:04;7.88;;;7.47;;
351;SDS011;164;50.784;6.496;2023-06-24T03:54:34;8.20;;;6.93;;
351;SDS011;164;50.784;6.496;2023-06-24T03:57:01;8.32;;;5.95;;
351;SDS011;164;50.784;6.496;2023-06-24T03:59:28;6.50;;;6.10;;
351;SDS011;164;50.784;6.496;2023-06-24T04:01:55;6.15;;;5.85;;
351;SDS011;164;50.784;6.496;2023-06-24T04:04:23;8.05;;;7.65;;
351;SDS011;164;50.784;6.496;2023-06-24T04:06:51;8.45;;;7.43;;
351;SDS011;164;50.784;6.496;2023-06-24T04:09:18;6.80;;;6.30;;
351;SDS011;164;50.784;6.496;2023-06-24T04:11:47;8.30;;;6.82;;
351;SDS011;164;50.784;6.496;2023-06-24T04:14:15;6.63;;;6.22;;
351;SDS011;164;50.784;6.496;2023-06-24T04:16:42;6.75;;;6.35;;
351;SDS011;164;50.784;6.496;2023-06-24T04:19:09;7.30;;;6.90;;
351;SDS011;164;50.784;6.496;2023-06-24T04:21:36;7.30;;;6.90;;
351;SDS011;164;50.784;6.496;2023-06-24T04:24:05;6.80;;;6.40;;
351;SDS011;164;50.784;6.496;2023-06-24T04:26:33;6.38;;;6.00;;
351;SDS011;164;50.784;6.496;2023-06-24T04:29:00;8.70;;;6.88;;
351;SDS011;164;50.784;6.496;2023-06-24T04:31:27;7.45;;;5.90;;
351;SDS011;164;50.784;6.496;2023-06-24T04:33:55;8.13;;;7.43;;
351;SDS011;164;50.784;6.496;2023-06-24T04:36:22;6.63;;;5.90;;
351;SDS011;164;50.784;6.496;2023-06-24T04:38:49;6.93;;;6.53;;
351;SDS011;164;50.784;6.496;2023-06-24T04:41:20;7.28;;;6.88;;
351;SDS011;164;50.784;6.496;2023-06-24T04:43:47;7.60;;;6.05;;
351;SDS011;164;50.784;6.496;2023-06-24T04:46:14;7.68;;;6.22;;
351;SDS011;164;50.784;6.496;2023-06-24T04:48:41;9.15;;;7.65;;
351;SDS011;164;50.784;6.496;2023-06-24T04:51:09;7.50;;;7.07;;
351;SDS011;164;50.784;6.496;2023-06-24T04:53:36;8.15;;;7.75;;
351;SDS011;164;50.784;6.496;2023-06-24T04:56:03;8.60;;;7.93;;
351;SDS011;164;50.784;6.496;2023-06-24T04:58:32;10.55;;;7.93;;
351;SDS011;164;50.784;6.496;2023-06-24T05:00:59;8.73;;;8.23;;
351;SDS011;164;50.784;6.496;2023-06-24T05:03:26;8.68;;;8.18;;
351;SDS011;164;50.784;6.496;2023-06-24T05:05:53;7.72;;;7.32;;
351;SDS011;164;50.784;6.496;2023-06-24T05:08:21;8.88;;;8.38;;
351;SDS011;164;50.784;6.496;2023-06-24T05:10:48;12.30;;;10.23;;
351;SDS011;164;50.784;6.496;2023-06-24T05:13:15;11.32;;;9.25;;
351;SDS011;164;50.784;6.496;2023-06-24T05:15:44;9.25;;;8.75;;
351;SDS011;164;50.784;6.496;2023-06-24T05:18:11;10.15;;;8.20;;
351;SDS011;164;50.784;6.496;2023-06-24T05:20:39;9.68;;;9.18;;
351;SDS011;164;50.784;6.496;2023-06-24T05:23:06;10.30;;;9.70;;
351;SDS011;164;50.784;6.496;2023-06-24T05:25:33;11.65;;;10.55;;
351;SDS011;164;50.784;6.496;2023-06-24T05:28:02;10.00;;;9.45;;
351;SDS011;164;50.784;6.496;2023-06-24T05:30:30;9.63;;;9.15;;
351;SDS011;164;50.784;6.496;2023-06-24T05:32:58;10.52;;;9.68;;
351;SDS011;164;50.784;6.496;2023-06-24T05:35:27;12.45;;;10.65;;
351;SDS011;164;50.784;6.496;2023-06-24T05:37:54;12.65;;;10.70;;
351;SDS011;164;50.784;6.496;2023-06-24T05:40:21;11.50;;;10.68;;
351;SDS011;164;50.784;6.496;2023-06-24T05:42:48;11.90;;;10.02;;
351;SDS011;164;50.784;6.496;2023-06-24T05:45:17;9.95;;;9.40;;
351;SDS011;164;50.784;6.496;2023-06-24T05:47:44;12.13;;;10.27;;
351;SDS011;164;50.784;6.496;2023-06-24T05:50:13;10.40;;;9.90;;
351;SDS011;164;50.784;6.496;2023-06-24T05:52:41;9.52;;;9.02;;
351;SDS011;164;50.784;6.496;2023-06-24T05:55:08;11.98;;;10.02;;
351;SDS011;164;50.784;6.496;2023-06-24T05:57:35;14.65;;;10.90;;
351;SDS011;164;50.784;6.496;2023-06-24T06:00:03;10.48;;;9.93;;
351;SDS011;164;50.784;6.496;2023-06-24T06:02:31;10.50;;;9.95;;
351;SDS011;164;50.784;6.496;2023-06-24T06:04:58;9.70;;;9.20;;
351;SDS011;164;50.784;6.496;2023-06-24T06:07:27;9.00;;;8.50;;
351;SDS011;164;50.784;6.496;2023-06-24T06:09:55;9.88;;;8.43;;
351;SDS011;164;50.784;6.496;2023-06-24T06:12:22;9.65;;;8.60;;
351;SDS011;164;50.784;6.496;2023-06-24T06:14:49;7.95;;;7.55;;
351;SDS011;164;50.784;6.496;2023-06-24T06:17:16;7.32;;;6.93;;
351;SDS011;164;50.784;6.496;2023-06-24T06:19:44;7.47;;;6.47;;
351;SDS011;164;50.784;6.496;2023-06-24T06:22:11;7.70;;;7.30;;
351;SDS011;164;50.784;6.496;2023-06-24T06:24:42;7.43;;;6.95;;
351;SDS011;164;50.784;6.496;2023-06-24T06:27:09;7.30;;;6.18;;
351;SDS011;164;50.784;6.496;2023-06-24T06:29:37;10.02;;;7.20;;
351;SDS011;164;50.784;6.496;2023-06-24T06:32:07;7.00;;;6.63;;
351;SDS011;164;50.784;6.496;2023-06-24T06:34:34;6.30;;;5.18;;
351;SDS011;164;50.784;6.496;2023-06-24T06:37:01;6.72;;;6.32;;
351;SDS011;164;50.784;6.496;2023-06-24T06:39:29;6.72;;;5.57;;
351;SDS011;164;50.784;6.496;2023-06-24T06:41:58;6.15;;;4.93;;
351;SDS011;164;50.784;6.496;2023-06-24T06:44:25;6.10;;;5.80;;
351;SDS011;164;50.784;6.496;2023-06-24T06:46:52;6.82;;;5.95;;
351;SDS011;164;50.784;6.496;2023-06-24T06:49:19;10.00;;;5.70;;
351;SDS011;164;50.784;6.496;2023-06-24T06:51:47;6.80;;;5.80;;
351;SDS011;164;50.784;6.496;2023-06-24T06:54:14;5.50;;;5.18;;
351;SDS011;164;50.784;6.496;2023-06-24T06:56:43;7.55;;;7.20;;
351;SDS011;164;50.784;6.496;2023-06-24T06:59:11;7.45;;;6.88;;
351;SDS011;164;50.784;6.496;2023-06-24T07:01:38;7.03;;;6.55;;
351;SDS011;164;50.784;6.496;2023-06-24T07:04:05;9.27;;;8.48;;
351;SDS011;164;50.784;6.496;2023-06-24T07:06:33;8.60;;;8.13;;
351;SDS011;164;50.784;6.496;2023-06-24T07:09:00;8.30;;;7.63;;
351;SDS011;164;50.784;6.496;2023-06-24T07:11:27;7.47;;;6.90;;
351;SDS011;164;50.784;6.496;2023-06-24T07:13:54;6.88;;;6.47;;
351;SDS011;164;50.784;6.496;2023-06-24T07:16:23;9.73;;;9.00;;
351;SDS011;164;50.784;6.496;2023-06-24T07:18:50;9.38;;;8.88;;
351;SDS011;164;50.784;6.496;2023-06-24T07:21:17;9.82;;;8.75;;
351;SDS011;164;50.784;6.496;2023-06-24T07:23:47;9.00;;;8.50;;
351;SDS011;164;50.784;6.496;2023-06-24T07:26:14;9.63;;;8.40;;
351;SDS011;164;50.784;6.496;2023-06-24T07:28:41;8.55;;;7.97;;
351;SDS011;164;50.784;6.496;2023-06-24T07:31:09;7.38;;;6.97;;
351;SDS011;164;50.784;6.496;2023-06-24T07:33:37;8.32;;;7.88;;
351;SDS011;164;50.784;6.496;2023-06-24T07:36:04;6.72;;;6.32;;
351;SDS011;164;50.784;6.496;2023-06-24T07:38:32;7.72;;;6.95;;
351;SDS011;164;50.784;6.496;2023-06-24T07:40:59;6.22;;;5.90;;
351;SDS011;164;50.784;6.496;2023-06-24T07:43:26;10.75;;;7.43;;
351;SDS011;164;50.784;6.496;2023-06-24T07:45:53;9.60;;;7.28;;
351;SDS011;164;50.784;6.496;2023-06-24T07:48:21;7.50;;;6.97;;
351;SDS011;164;50.784;6.496;2023-06-24T07:50:49;7.78;;;6.07;;
351;SDS011;164;50.784;6.496;2023-06-24T07:53:18;7.95;;;7.63;;
351;SDS011;164;50.784;6.496;2023-06-24T07:55:45;9.82;;;7.68;;
351;SDS011;164;50.784;6.496;2023-06-24T07:58:12;9.07;;;7.05;;
351;SDS011;164;50.784;6.496;2023-06-24T08:00:41;9.55;;;8.05;;
351;SDS011;164;50.784;6.496;2023-06-24T08:03:08;9.40;;;8.60;;
351;SDS011;164;50.784;6.496;2023-06-24T08:05:35;8.52;;;7.50;;
351;SDS011;164;50.784;6.496;2023-06-24T08:08:05;10.13;;;9.63;;
351;SDS011;164;50.784;6.496;2023-06-24T08:10:33;9.70;;;7.60;;
351;SDS011;164;50.784;6.496;2023-06-24T08:13:00;10.82;;;8.02;;
351;SDS011;164;50.784;6.496;2023-06-24T08:15:27;11.60;;;7.80;;
351;SDS011;164;50.784;6.496;2023-06-24T08:17:54;10.77;;;9.07;;
351;SDS011;164;50.784;6.496;2023-06-24T08:20:22;11.43;;;9.60;;
351;SDS011;164;50.784;6.496;2023-06-24T08:22:50;12.73;;;8.50;;
351;SDS011;164;50.784;6.496;2023-06-24T08:25:18;9.65;;;8.32;;
351;SDS011;164;50.784;6.496;2023-06-24T08:27:45;10.27;;;8.55;;
351;SDS011;164;50.784;6.496;2023-06-24T08:30:13;9.60;;;8.55;;
351;SDS011;164;50.784;6.496;2023-06-24T08:32:41;10.25;;;8.10;;
351;SDS011;164;50.784;6.496;2023-06-24T08:35:08;10.15;;;8.30;;
351;SDS011;164;50.784;6.496;2023-06-24T08:37:36;11.75;;;7.65;;
351;SDS011;164;50.784;6.496;2023-06-24T08:40:04;8.10;;;7.00;;
351;SDS011;164;50.784;6.496;2023-06-24T08:42:32;7.13;;;6.72;;
351;SDS011;164;50.784;6.496;2023-06-24T08:45:00;9.05;;;8.05;;
351;SDS011;164;50.784;6.496;2023-06-24T08:47:27;10.77;;;6.97;;
351;SDS011;164;50.784;6.496;2023-06-24T08:50:00;8.25;;;6.22;;
351;SDS011;164;50.784;6.496;2023-06-24T08:52:29;10.75;;;7.45;;
351;SDS011;164;50.784;6.496;2023-06-24T08:54:59;8.32;;;7.55;;
351;SDS011;164;50.784;6.496;2023-06-24T08:57:26;9.95;;;7.22;;
351;SDS011;164;50.784;6.496;2023-06-24T08:59:55;9.30;;;7.13;;
351;SDS011;164;50.784;6.496;2023-06-24T09:02:22;8.63;;;8.00;;
351;SDS011;164;50.784;6.496;2023-06-24T09:04:50;7.55;;;6.97;;
351;SDS011;164;50.784;6.496;2023-06-24T09:07:24;7.53;;;6.68;;
351;SDS011;164;50.784;6.496;2023-06-24T09:09:52;8.57;;;6.63;;
351;SDS011;164;50.784;6.496;2023-06-24T09:12:20;6.80;;;5.43;;
351;SDS011;164;50.784;6.496;2023-06-24T09:14:48;7.97;;;5.28;;
351;SDS011;164;50.784;6.496;2023-06-24T09:17:17;5.32;;;5.03;;
351;SDS011;164;50.784;6.496;2023-06-24T09:19:47;5.68;;;5.00;;
351;SDS011;164;50.784;6.496;2023-06-24T09:22:14;5.93;;;4.88;;
351;SDS011;164;50.784;6.496;2023-06-24T09:24:43;5.80;;;5.07;;
351;SDS011;164;50.784;6.496;2023-06-24T09:27:11;4.85;;;4.40;;
351;SDS011;164;50.784;6.496;2023-06-24T09:29:39;3.42;;;3.22;;
351;SDS011;164;50.784;6.496;2023-06-24T09:32:07;4.32;;;4.03;;
351;SDS011;164;50.784;6.496;2023-06-24T09:34:35;4.00;;;3.75;;
351;SDS011;164;50.784;6.496;2023-06-24T09:37:03;3.55;;;3.40;;
351;SDS011;164;50.784;6.496;2023-06-24T09:39:34;4.07;;;3.33;;
351;SDS011;164;50.784;6.496;2023-06-24T09:42:02;4.40;;;4.10;;
351;SDS011;164;50.784;6.496;2023-06-24T09:44:29;5.15;;;4.85;;
351;SDS011;164;50.784;6.496;2023-06-24T09:46:56;4.47;;;3.35;;
351;SDS011;164;50.784;6.496;2023-06-24T09:49:23;5.25;;;4.15;;
351;SDS011;164;50.784;6.496;2023-06-24T09:51:54;7.32;;;3.75;;
351;SDS011;164;50.784;6.496;2023-06-24T09:54:22;4.75;;;3.50;;
351;SDS011;164;50.784;6.496;2023-06-24T09:56:51;3.97;;;3.40;;
351;SDS011;164;50.784;6.496;2023-06-24T09:59:19;3.85;;;3.67;;
351;SDS011;164;50.784;6.496;2023-06-24T10:01:47;2.58;;;2.38;;
351;SDS011;164;50.784;6.496;2023-06-24T10:04:15;3.05;;;2.88;;
351;SDS011;164;50.784;6.496;2023-06-24T10:06:43;4.03;;;3.22;;
351;SDS011;164;50.784;6.496;2023-06-24T10:09:12;3.15;;;2.95;;
351;SDS011;164;50.784;6.496;2023-06-24T10:11:42;2.92;;;2.72;;
351;SDS011;164;50.784;6.496;2023-06-24T10:14:09;4.90;;;3.05;;
351;SDS011;164;50.784;6.496;2023-06-24T10:16:36;3.75;;;2.90;;
351;SDS011;164;50.784;6.496;2023-06-24T10:19:03;2.83;;;2.50;;
351;SDS011;164;50.784;6.496;2023-06-24T10:21:43;3.23;;;3.03;;
351;SDS011;164;50.784;6.496;2023-06-24T10:24:13;3.13;;;2.50;;
351;SDS011;164;50.784;6.496;2023-06-24T10:26:54;2.60;;;2.15;;
351;SDS011;164;50.784;6.496;2023-06-24T10:29:30;4.40;;;3.13;;
351;SDS011;164;50.784;6.496;2023-06-24T10:32:00;2.93;;;2.73;;
351;SDS011;164;50.784;6.496;2023-06-24T10:34:29;4.28;;;2.97;;
351;SDS011;164;50.784;6.496;2023-06-24T10:36:59;4.45;;;2.13;;
351;SDS011;164;50.784;6.496;2023-06-24T10:39:40;3.00;;;2.80;;
351;SDS011;164;50.784;6.496;2023-06-24T10:45:18;2.87;;;2.73;;
351;SDS011;164;50.784;6.496;2023-06-24T10:47:47;2.85;;;2.25;;
351;SDS011;164;50.784;6.496;2023-06-24T10:50:15;3.08;;;2.35;;
351;SDS011;164;50.784;6.496;2023-06-24T10:52:43;3.00;;;2.20;;
351;SDS011;164;50.784;6.496;2023-06-24T10:55:14;2.75;;;2.55;;
351;SDS011;164;50.784;6.496;2023-06-24T10:57:41;2.63;;;2.20;;
351;SDS011;164;50.784;6.496;2023-06-24T11:00:10;3.43;;;3.23;;
351;SDS011;164;50.784;6.496;2023-06-24T11:02:37;3.70;;;2.40;;
351;SDS011;164;50.784;6.496;2023-06-24T11:05:04;3.13;;;2.93;;
351;SDS011;164;50.784;6.496;2023-06-24T11:07:32;2.83;;;2.60;;
351;SDS011;164;50.784;6.496;2023-06-24T11:10:01;3.17;;;2.90;;
351;SDS011;164;50.784;6.496;2023-06-24T11:12:31;2.70;;;2.40;;
351;SDS011;164;50.784;6.496;2023-06-24T11:14:59;3.77;;;2.47;;
351;SDS011;164;50.784;6.496;2023-06-24T11:17:26;3.37;;;2.87;;
351;SDS011;164;50.784;6.496;2023-06-24T11:19:54;3.00;;;2.53;;
351;SDS011;164;50.784;6.496;2023-06-24T11:22:22;3.20;;;3.00;;
351;SDS011;164;50.784;6.496;2023-06-24T11:24:49;2.97;;;2.70;;
351;SDS011;164;50.784;6.496;2023-06-24T11:27:23;3.33;;;3.23;;
351;SDS011;164;50.784;6.496;2023-06-24T11:29:52;3.07;;;2.63;;
351;SDS011;164;50.784;6.496;2023-06-24T11:32:20;2.47;;;2.30;;
351;SDS011;164;50.784;6.496;2023-06-24T11:34:47;4.13;;;3.20;;
351;SDS011;164;50.784;6.496;2023-06-24T11:37:15;3.27;;;2.50;;
351;SDS011;164;50.784;6.496;2023-06-24T11:39:42;2.63;;;2.43;;
351;SDS011;164;50.784;6.496;2023-06-24T11:42:10;2.90;;;2.60;;
351;SDS011;164;50.784;6.496;2023-06-24T11:44:40;4.10;;;2.70;;
351;SDS011;164;50.784;6.496;2023-06-24T11:47:10;2.63;;;2.27;;
351;SDS011;164;50.784;6.496;2023-06-24T11:52:31;2.73;;;2.63;;
351;SDS011;164;50.784;6.496;2023-06-24T11:54:59;4.30;;;2.77;;
351;SDS011;164;50.784;6.496;2023-06-24T12:00:11;3.73;;;3.20;;
351;SDS011;164;50.784;6.496;2023-06-24T12:02:40;2.67;;;2.40;;
351;SDS011;164;50.784;6.496;2023-06-24T12:05:08;2.40;;;2.20;;
351;SDS011;164;50.784;6.496;2023-06-24T12:07:35;2.73;;;2.50;;
351;SDS011;164;50.784;6.496;2023-06-24T12:10:02;2.80;;;2.60;;
351;SDS011;164;50.784;6.496;2023-06-24T12:12:30;3.30;;;2.60;;
351;SDS011;164;50.784;6.496;2023-06-24T12:14:57;3.40;;;3.20;;
351;SDS011;164;50.784;6.496;2023-06-24T12:17:24;3.10;;;2.90;;
351;SDS011;164;50.784;6.496;2023-06-24T12:19:53;2.70;;;2.50;;
351;SDS011;164;50.784;6.496;2023-06-24T12:22:20;2.57;;;2.37;;
351;SDS011;164;50.784;6.496;2023-06-24T12:24:47;2.30;;;2.03;;
351;SDS011;164;50.784;6.496;2023-06-24T12:27:14;2.80;;;2.60;;
351;SDS011;164;50.784;6.496;2023-06-24T12:29:41;6.87;;;2.97;;
351;SDS011;164;50.784;6.496;2023-06-24T12:32:09;4.93;;;2.50;;
351;SDS011;164;50.784;6.496;2023-06-24T12:34:36;2.80;;;2.70;;
351;SDS011;164;50.784;6.496;2023-06-24T12:37:04;7.27;;;2.77;;
351;SDS011;164;50.784;6.496;2023-06-24T12:39:31;2.07;;;1.93;;
351;SDS011;164;50.784;6.496;2023-06-24T12:41:59;4.03;;;3.63;;
351;SDS011;164;50.784;6.496;2023-06-24T12:44:26;2.67;;;2.53;;
351;SDS011;164;50.784;6.496;2023-06-24T12:46:53;3.13;;;2.60;;
351;SDS011;164;50.784;6.496;2023-06-24T12:49:20;2.53;;;2.33;;
351;SDS011;164;50.784;6.496;2023-06-24T12:51:48;3.03;;;2.30;;
351;SDS011;164;50.784;6.496;2023-06-24T12:54:16;2.60;;;2.37;;
351;SDS011;164;50.784;6.496;2023-06-24T12:56:43;3.23;;;2.27;;
351;SDS011;164;50.784;6.496;2023-06-24T12:59:11;2.40;;;2.20;;
351;SDS011;164;50.784;6.496;2023-06-24T13:01:38;3.07;;;2.87;;
351;SDS011;164;50.784;6.496;2023-06-24T13:04:09;4.03;;;2.50;;
351;SDS011;164;50.784;6.496;2023-06-24T13:06:37;2.70;;;2.50;;
351;SDS011;164;50.784;6.496;2023-06-24T13:09:05;3.57;;;2.30;;
351;SDS011;164;50.784;6.496;2023-06-24T13:11:33;3.33;;;2.37;;
351;SDS011;164;50.784;6.496;2023-06-24T13:14:02;2.63;;;2.50;;
351;SDS011;164;50.784;6.496;2023-06-24T13:16:29;2.70;;;2.30;;
351;SDS011;164;50.784;6.496;2023-06-24T13:18:56;2.57;;;2.27;;
351;SDS011;164;50.784;6.496;2023-06-24T13:21:23;3.10;;;2.70;;
351;SDS011;164;50.784;6.496;2023-06-24T13:23:51;2.30;;;1.80;;
351;SDS011;164;50.784;6.496;2023-06-24T13:26:18;3.20;;;2.30;;
351;SDS011;164;50.784;6.496;2023-06-24T13:28:47;2.00;;;1.90;;
351;SDS011;164;50.784;6.496;2023-06-24T13:31:14;2.80;;;2.60;;
351;SDS011;164;50.784;6.496;2023-06-24T13:33:41;2.30;;;2.10;;
351;SDS011;164;50.784;6.496;2023-06-24T13:36:09;2.80;;;2.60;;
351;SDS011;164;50.784;6.496;2023-06-24T13:38:38;2.80;;;2.27;;
351;SDS011;164;50.784;6.496;2023-06-24T13:41:06;2.23;;;2.10;;
351;SDS011;164;50.784;6.496;2023-06-24T13:43:33;2.47;;;2.30;;
351;SDS011;164;50.784;6.496;2023-06-24T13:46:02;3.13;;;2.53;;
351;SDS011;164;50.784;6.496;2023-06-24T13:48:29;3.60;;;2.90;;
351;SDS011;164;50.784;6.496;2023-06-24T13:50:57;3.20;;;2.33;;
351;SDS011;164;50.784;6.496;2023-06-24T13:53:24;2.63;;;2.20;;
351;SDS011;164;50.784;6.496;2023-06-24T13:55:51;3.40;;;2.53;;
351;SDS011;164;50.784;6.496;2023-06-24T13:58:18;3.27;;;2.40;;
351;SDS011;164;50.784;6.496;2023-06-24T14:00:45;6.30;;;2.43;;
351;SDS011;164;50.784;6.496;2023-06-24T14:03:13;3.47;;;2.13;;
351;SDS011;164;50.784;6.496;2023-06-24T14:05:41;2.60;;;2.30;;
351;SDS011;164;50.784;6.496;2023-06-24T14:08:08;4.80;;;2.77;;
351;SDS011;164;50.784;6.496;2023-06-24T14:10:35;3.13;;;2.13;;
351;SDS011;164;50.784;6.496;2023-06-24T14:13:02;3.10;;;2.07;;
351;SDS011;164;50.784;6.496;2023-06-24T14:15:30;2.43;;;2.07;;
351;SDS011;164;50.784;6.496;2023-06-24T14:17:57;2.47;;;2.00;;
351;SDS011;164;50.784;6.496;2023-06-24T14:20:26;2.03;;;1.83;;
351;SDS011;164;50.784;6.496;2023-06-24T14:22:53;2.93;;;2.47;;
351;SDS011;164;50.784;6.496;2023-06-24T14:25:20;2.37;;;2.13;;
351;SDS011;164;50.784;6.496;2023-06-24T14:27:49;2.37;;;2.20;;
351;SDS011;164;50.784;6.496;2023-06-24T14:30:16;2.50;;;2.30;;
351;SDS011;164;50.784;6.496;2023-06-24T14:32:43;2.93;;;2.37;;
351;SDS011;164;50.784;6.496;2023-06-24T14:35:10;3.50;;;2.50;;
351;SDS011;164;50.784;6.496;2023-06-24T14:37:38;2.20;;;1.50;;
351;SDS011;164;50.784;6.496;2023-06-24T14:40:07;2.27;;;2.13;;
351;SDS011;164;50.784;6.496;2023-06-24T14:42:35;1.83;;;1.60;;
351;SDS011;164;50.784;6.496;2023-06-24T14:45:02;3.93;;;1.93;;
351;SDS011;164;50.784;6.496;2023-06-24T14:47:30;2.53;;;2.10;;
351;SDS011;164;50.784;6.496;2023-06-24T14:49:57;2.40;;;2.03;;
351;SDS011;164;50.784;6.496;2023-06-24T14:52:24;1.97;;;1.90;;
351;SDS011;164;50.784;6.496;2023-06-24T14:54:53;3.13;;;2.37;;
351;SDS011;164;50.784;6.496;2023-06-24T14:57:20;2.13;;;1.87;;
351;SDS011;164;50.784;6.496;2023-06-24T14:59:48;2.60;;;2.30;;
351;SDS011;164;50.784;6.496;2023-06-24T15:02:15;2.73;;;1.90;;
351;SDS011;164;50.784;6.496;2023-06-24T15:04:43;3.07;;;1.63;;
351;SDS011;164;50.784;6.496;2023-06-24T15:07:10;8.03;;;2.17;;
351;SDS011;164;50.784;6.496;2023-06-24T15:09:37;1.90;;;1.53;;
351;SDS011;164;50.784;6.496;2023-06-24T15:12:06;2.30;;;2.20;;
351;SDS011;164;50.784;6.496;2023-06-24T15:14:33;3.00;;;1.70;;
351;SDS011;164;50.784;6.496;2023-06-24T15:17:00;5.33;;;3.27;;
351;SDS011;164;50.784;6.496;2023-06-24T15:19:28;2.03;;;1.70;;
351;SDS011;164;50.784;6.496;2023-06-24T15:21:55;1.90;;;1.80;;
351;SDS011;164;50.784;6.496;2023-06-24T15:24:22;2.67;;;1.87;;
351;SDS011;164;50.784;6.496;2023-06-24T15:26:49;2.37;;;1.63;;
351;SDS011;164;50.784;6.496;2023-06-24T15:29:18;2.27;;;1.73;;
351;SDS011;164;50.784;6.496;2023-06-24T15:31:45;2.37;;;1.60;;
351;SDS011;164;50.784;6.496;2023-06-24T15:34:12;1.67;;;1.50;;
351;SDS011;164;50.784;6.496;2023-06-24T15:36:39;2.60;;;1.80;;
351;SDS011;164;50.784;6.496;2023-06-24T15:39:08;2.43;;;2.00;;
351;SDS011;164;50.784;6.496;2023-06-24T15:41:35;1.97;;;1.87;;
351;SDS011;164;50.784;6.496;2023-06-24T15:44:04;4.23;;;1.87;;
351;SDS011;164;50.784;6.496;2023-06-24T15:46:32;1.90;;;1.77;;
351;SDS011;164;50.784;6.496;2023-06-24T15:49:00;2.13;;;1.97;;
351;SDS011;164;50.784;6.496;2023-06-24T15:51:27;2.47;;;1.93;;
351;SDS011;164;50.784;6.496;2023-06-24T15:53:54;2.23;;;2.03;;
351;SDS011;164;50.784;6.496;2023-06-24T15:56:21;2.53;;;1.90;;
351;SDS011;164;50.784;6.496;2023-06-24T15:58:49;4.23;;;3.97;;
351;SDS011;164;50.784;6.496;2023-06-24T16:01:16;2.60;;;2.00;;